Time;durP1;ratioP1;P1;durP2;ratioP2;P2;SDS_P1;SDS_P2;PMS_P1;PMS_P2;Temp;Humidity;BMP_temperature;BMP_pressure;BME280_temperature;BME280_humidity;BME280_pressure;Samples;Min_cycle;Max_cycle;Signal;HPM_P1;HPM_P2
2022/06/16 00:00:40;;;;;;;3.46;1.84;;;;;;;17.15;65.96;100862.16;457407;116;922840;-75
2022/06/16 00:01:43;;;;;;;2.33;2.15;;;;;;;17.15;65.96;100862.16;457364;116;923037;-75
2022/06/16 00:02:50;;;;;;;2.23;1.73;;;;;;;17.16;65.62;100863.00;455616;116;922520;-76
2022/06/16 00:03:53;;;;;;;1.60;1.50;;;;;;;17.15;65.48;100856.66;455471;116;923020;-76
2022/06/16 00:04:56;;;;;;;3.05;1.62;;;;;;;17.11;65.36;100855.49;455713;116;922649;-76
2022/06/16 00:05:59;;;;;;;3.59;1.80;;;;;;;17.09;65.37;100861.25;446350;119;922585;-75
2022/06/16 00:07:03;;;;;;;1.71;1.60;;;;;;;17.05;65.20;100870.27;446422;119;923097;-76
2022/06/16 00:08:07;;;;;;;5.96;1.84;;;;;;;17.02;65.15;100871.63;446334;119;922532;-75
2022/06/16 00:09:10;;;;;;;1.88;1.54;;;;;;;16.98;65.12;100864.92;446198;117;922546;-76
2022/06/16 00:10:14;;;;;;;1.58;1.46;;;;;;;16.94;65.19;100865.67;446953;118;922352;-77
2022/06/16 00:11:17;;;;;;;1.58;1.48;;;;;;;16.92;65.30;100865.95;446995;119;922979;-75
2022/06/16 00:12:20;;;;;;;2.82;1.59;;;;;;;16.90;65.36;100861.76;446931;119;922846;-75
2022/06/16 00:13:23;;;;;;;1.99;1.44;;;;;;;16.90;65.45;100859.84;447078;117;922776;-76
2022/06/16 00:14:27;;;;;;;1.96;1.54;;;;;;;16.90;65.55;100859.84;447013;119;922821;-75
2022/06/16 00:15:31;;;;;;;2.69;1.65;;;;;;;16.92;65.68;100859.60;446914;119;922479;-75
2022/06/16 00:16:34;;;;;;;1.92;1.75;;;;;;;16.94;65.68;100855.50;447123;118;922364;-73
2022/06/16 00:17:37;;;;;;;1.99;1.27;;;;;;;16.96;65.55;100856.09;447077;119;922834;-76
2022/06/16 00:18:41;;;;;;;2.12;1.71;;;;;;;16.97;65.50;100860.52;447045;117;922829;-76
2022/06/16 00:19:44;;;;;;;2.12;1.57;;;;;;;16.98;65.47;100855.85;447016;119;922428;-75
2022/06/16 00:20:47;;;;;;;1.95;1.64;;;;;;;16.98;65.35;100855.85;446988;119;922277;-74
2022/06/16 00:21:51;;;;;;;2.47;1.80;;;;;;;16.99;65.34;100857.49;446846;119;922803;-75
2022/06/16 00:22:54;;;;;;;2.18;1.71;;;;;;;16.98;65.11;100855.85;446458;119;922833;-75
2022/06/16 00:23:57;;;;;;;2.08;1.87;;;;;;;16.97;65.11;100856.92;446379;117;923707;-75
2022/06/16 00:25:00;;;;;;;1.92;1.63;;;;;;;16.94;65.20;100861.00;446466;119;922869;-74
2022/06/16 00:26:03;;;;;;;1.61;1.45;;;;;;;16.93;65.16;100853.82;446324;118;922914;-74
2022/06/16 00:27:07;;;;;;;2.01;1.68;;;;;;;16.91;65.10;100856.01;446448;119;922636;-76
2022/06/16 00:28:10;;;;;;;2.26;1.83;;;;;;;16.89;65.02;100855.41;446606;119;922877;-76
2022/06/16 00:29:13;;;;;;;1.51;1.38;;;;;;;16.87;64.96;100854.81;446990;117;922723;-76
2022/06/16 00:30:18;;;;;;;2.48;1.54;;;;;;;16.83;64.89;100853.66;456720;116;922698;-77
2022/06/16 00:31:23;;;;;;;3.12;1.76;;;;;;;16.80;64.91;100858.83;457774;116;922786;-76
2022/06/16 00:32:26;;;;;;;1.69;1.58;;;;;;;16.76;64.98;100858.48;458003;116;922373;-76
2022/06/16 00:33:30;;;;;;;1.54;1.44;;;;;;;16.74;65.13;100865.33;451075;117;922509;-75
2022/06/16 00:34:33;;;;;;;2.44;1.42;;;;;;;16.72;65.30;100868.33;451358;116;922948;-77
2022/06/16 00:35:36;;;;;;;1.72;1.56;;;;;;;16.72;65.43;100868.33;458152;115;925157;-77
2022/06/16 00:36:39;;;;;;;1.57;1.47;;;;;;;16.73;65.52;100864.50;458194;116;922801;-75
2022/06/16 00:37:42;;;;;;;1.46;1.36;;;;;;;16.75;65.54;100872.52;458193;116;922248;-75
2022/06/16 00:38:45;;;;;;;2.10;1.52;;;;;;;16.77;65.57;100868.41;458181;114;922363;-75
2022/06/16 00:39:48;;;;;;;1.95;1.67;;;;;;;16.79;65.66;100869.02;458063;116;922294;-77
2022/06/16 00:40:52;;;;;;;1.60;1.47;;;;;;;16.82;65.63;100862.16;458038;115;930261;-77
2022/06/16 00:41:55;;;;;;;2.19;1.46;;;;;;;16.81;65.42;100861.34;458208;116;922466;-76
2022/06/16 00:42:58;;;;;;;1.49;1.37;;;;;;;16.81;65.29;100868.77;458064;116;922330;-77
2022/06/16 00:44:02;;;;;;;2.42;1.55;;;;;;;16.79;65.24;100868.17;458119;114;922378;-76
2022/06/16 00:45:42;;;;;;;1.98;1.73;;;;;;;16.76;65.25;100865.94;458054;116;922334;-76
2022/06/16 00:46:45;;;;;;;2.06;1.65;;;;;;;16.73;65.21;100874.67;450278;118;922826;-77
2022/06/16 00:47:48;;;;;;;2.24;1.76;;;;;;;16.64;65.32;100874.25;450279;118;922161;-76
2022/06/16 00:48:55;;;;;;;2.81;1.54;;;;;;;16.64;65.32;100874.25;450216;116;922845;-77
2022/06/16 00:50:01;;;;;;;1.96;1.43;;;;;;;16.62;65.30;100873.66;450154;118;922198;-76
2022/06/16 00:51:08;;;;;;;1.62;1.33;;;;;;;16.59;65.36;100876.91;449998;117;922474;-76
2022/06/16 00:52:14;;;;;;;2.88;1.54;;;;;;;16.56;65.45;100869.10;450083;118;922847;-76
2022/06/16 00:53:27;;;;;;;1.92;1.68;;;;;;;16.66;65.63;100869.31;487495;107;934589;-76
2022/06/16 00:54:33;;;;;;;1.84;1.48;;;;;;;16.56;65.65;100869.10;467615;113;922437;-78
2022/06/16 00:55:37;;;;;;;1.79;1.56;;;;;;;16.56;65.68;100867.19;467560;113;922624;-75
2022/06/16 00:56:41;;;;;;;2.04;1.45;;;;;;;16.56;65.66;100872.70;467674;113;922069;-76
2022/06/16 00:57:46;;;;;;;1.62;1.52;;;;;;;16.55;65.52;100867.42;467552;113;929993;-77
2022/06/16 00:58:53;;;;;;;1.92;1.46;;;;;;;16.53;65.47;100864.95;467475;111;930156;-76
2022/06/16 00:59:57;;;;;;;2.48;1.55;;;;;;;16.50;65.43;100870.09;467388;113;922821;-77
2022/06/16 01:01:01;;;;;;;1.99;1.46;;;;;;;16.47;65.51;100870.59;467653;113;922212;-77
2022/06/16 01:02:05;;;;;;;2.17;1.30;;;;;;;16.45;65.52;100868.08;467159;113;930081;-77
2022/06/16 01:03:09;;;;;;;3.24;1.43;;;;;;;16.44;65.67;100869.16;465868;114;922287;-76
2022/06/16 01:05:34;;;;;;;1.54;1.42;;;;;;;16.44;65.85;100866.41;465889;114;922910;-77
2022/06/16 01:06:38;;;;;;;1.70;1.40;;;;;;;16.44;65.88;100871.91;465771;114;922417;-71
2022/06/16 01:07:44;;;;;;;1.82;1.72;;;;;;;16.46;65.91;100874.42;465462;114;922819;-75
2022/06/16 01:08:51;;;;;;;2.19;1.46;;;;;;;16.45;65.88;100870.83;465365;114;922682;-75
2022/06/16 01:09:56;;;;;;;2.28;1.61;;;;;;;16.45;65.88;100872.75;465375;114;922967;-75
2022/06/16 01:11:03;;;;;;;1.98;1.68;;;;;;;16.43;65.83;100867.48;465491;114;923385;-74
2022/06/16 01:13:46;;;;;;;1.63;1.46;;;;;;;16.42;65.75;100868.59;465333;114;923001;-74
2022/06/16 01:15:11;;;;;;;2.20;2.00;;;;;;;16.37;65.85;100865.73;464844;114;923146;-76
2022/06/16 01:16:25;;;;;;;2.99;1.60;;;;;;;16.35;65.86;100867.05;465098;114;922476;-77
2022/06/16 01:17:53;;;;;;;1.34;1.20;;;;;;;16.33;65.99;100870.05;465349;114;922536;-76
2022/06/16 01:19:17;;;;;;;1.66;1.56;;;;;;;16.31;65.92;100869.47;464962;114;922519;-75
2022/06/16 01:20:26;;;;;;;1.94;1.46;;;;;;;16.29;66.10;100868.87;465213;114;922979;-76
2022/06/16 01:21:36;;;;;;;4.91;1.64;;;;;;;16.26;66.18;100866.63;464571;114;922444;-75
2022/06/16 01:22:46;;;;;;;3.08;1.62;;;;;;;16.25;66.26;100867.70;465223;114;922499;-75
2022/06/16 01:24:04;;;;;;;1.56;1.39;;;;;;;16.25;66.35;100863.03;445856;119;922918;-76
2022/06/16 01:25:14;;;;;;;1.83;1.73;;;;;;;16.26;66.35;100869.38;460919;114;923057;-75
2022/06/16 01:26:37;;;;;;;3.48;1.64;;;;;;;16.24;66.19;100875.11;465175;114;922929;-75
2022/06/16 01:27:47;;;;;;;1.88;1.74;;;;;;;16.22;66.19;100871.76;464207;114;923884;-75
2022/06/16 01:29:18;;;;;;;2.12;1.73;;;;;;;16.20;66.25;100865.69;458333;114;922828;-75
2022/06/16 01:30:22;;;;;;;;;;;;;;;16.21;66.32;100878.34;470900;113;922041;-76
2022/06/16 01:31:32;;;;;;;1.62;1.44;;;;;;;16.20;66.46;100873.94;466457;113;922466;-76
2022/06/16 01:33:06;;;;;;;2.32;1.54;;;;;;;16.18;66.35;100876.09;466975;113;922512;-76
2022/06/16 01:34:35;;;;;;;1.63;1.46;;;;;;;16.26;66.38;100872.13;467870;110;946612;-76
2022/06/16 01:35:42;;;;;;;3.14;1.64;;;;;;;16.13;66.40;100875.98;457397;116;922534;-77
2022/06/16 01:36:54;;;;;;;1.44;1.23;;;;;;;16.11;66.56;100878.14;457373;116;923124;-75
2022/06/16 01:38:16;;;;;;;2.12;1.49;;;;;;;16.11;66.57;100874.55;449998;116;923089;-75
2022/06/16 01:39:26;;;;;;;1.67;1.42;;;;;;;16.12;66.55;100878.98;457394;116;923025;-75
2022/06/16 01:40:45;;;;;;;2.61;1.39;;;;;;;16.11;66.60;100880.89;457425;116;923043;-76
2022/06/16 01:42:01;;;;;;;1.53;1.38;;;;;;;16.12;66.72;100871.56;458427;114;922570;-76
2022/06/16 01:43:14;;;;;;;2.13;1.41;;;;;;;16.15;66.82;100881.26;465180;114;923052;-76
2022/06/16 01:44:29;;;;;;;4.38;1.50;;;;;;;16.18;66.84;100873.34;455796;116;923253;-76
2022/06/16 01:45:54;;;;;;;2.23;1.66;;;;;;;16.22;66.83;100871.76;457586;114;923174;-76
2022/06/16 01:47:01;;;;;;;5.42;1.60;;;;;;;16.24;66.71;100872.36;465405;114;922413;-75
2022/06/16 01:48:09;;;;;;;3.21;1.45;;;;;;;16.27;66.65;100874.61;455898;116;922850;-76
2022/06/16 01:49:16;;;;;;;1.88;1.43;;;;;;;16.26;66.63;100875.69;456587;114;922742;-76
2022/06/16 01:50:23;;;;;;;1.81;1.51;;;;;;;16.27;66.57;100865.52;465352;114;923020;-76
2022/06/16 01:51:45;;;;;;;2.21;1.56;;;;;;;16.28;66.36;100867.19;465421;114;923027;-75
2022/06/16 01:52:51;;;;;;;1.83;1.37;;;;;;;16.27;66.22;100876.52;465431;114;923112;-76
2022/06/16 01:54:04;;;;;;;1.61;1.51;;;;;;;16.24;66.03;100872.36;465313;112;922533;-76
2022/06/16 01:55:17;;;;;;;1.74;1.48;;;;;;;16.33;66.05;100874.70;476959;110;948254;-74
2022/06/16 01:56:24;;;;;;;1.32;1.22;;;;;;;16.20;66.04;100881.36;465464;114;923569;-76
2022/06/16 01:57:43;;;;;;;1.40;1.12;;;;;;;16.19;66.06;100880.52;465102;113;923041;-75
2022/06/16 01:58:50;;;;;;;3.13;1.48;;;;;;;16.18;66.04;100884.34;456677;115;923532;-76
2022/06/16 02:00:03;;;;;;;1.58;1.26;;;;;;;16.16;66.05;100889.24;458482;114;923010;-75
2022/06/16 02:01:10;;;;;;;1.80;1.22;;;;;;;16.15;66.12;100882.06;465416;114;922974;-75
2022/06/16 02:02:17;;;;;;;1.83;1.47;;;;;;;16.13;66.12;100883.41;466007;113;923139;-75
2022/06/16 02:03:27;;;;;;;4.69;1.50;;;;;;;16.11;66.15;100880.89;466490;113;922739;-75
2022/06/16 02:04:36;;;;;;;3.33;1.64;;;;;;;16.11;66.27;100886.39;466429;113;922520;-76
2022/06/16 02:05:58;;;;;;;2.09;1.55;;;;;;;16.13;66.49;100880.66;466366;113;923289;-76
2022/06/16 02:07:05;;;;;;;1.66;1.32;;;;;;;16.14;66.62;100883.17;466499;113;922964;-75
2022/06/16 02:08:15;;;;;;;1.87;1.46;;;;;;;16.17;66.55;100888.17;466507;113;922645;-75
2022/06/16 02:09:22;;;;;;;1.63;1.42;;;;;;;16.19;66.52;100885.18;465985;113;923136;-75
2022/06/16 02:10:29;;;;;;;2.13;1.33;;;;;;;16.20;66.50;100881.36;457401;113;922824;-76
2022/06/16 02:11:35;;;;;;;1.96;1.62;;;;;;;16.21;66.40;100888.50;450305;116;922600;-76
2022/06/16 02:12:57;;;;;;;1.66;1.54;;;;;;;16.21;66.35;100888.50;457323;113;923291;-76
2022/06/16 02:14:09;;;;;;;1.51;1.16;;;;;;;16.22;66.46;100890.18;466257;113;922640;-75
2022/06/16 02:15:23;;;;;;;1.77;1.41;;;;;;;16.24;66.50;100896.28;466448;113;923051;-75
2022/06/16 02:16:36;;;;;;;1.52;1.28;;;;;;;16.25;66.57;100895.22;462344;113;923198;-76
2022/06/16 02:17:41;;;;;;;1.28;1.18;;;;;;;16.25;66.68;100898.80;466572;113;922510;-75
2022/06/16 02:18:45;;;;;;;2.81;1.91;;;;;;;16.28;66.61;100900.22;466743;113;922942;-75
2022/06/16 02:19:48;;;;;;;2.34;2.11;;;;;;;16.28;66.54;100901.05;466588;113;923056;-75
2022/06/16 02:21:01;;;;;;;2.58;2.22;;;;;;;16.32;66.38;100903.33;465544;114;923086;-75
2022/06/16 02:22:04;;;;;;;3.47;1.89;;;;;;;16.31;66.29;100902.49;459562;113;923221;-74
2022/06/16 02:23:07;;;;;;;1.76;1.46;;;;;;;16.31;66.30;100902.49;466711;113;922621;-74
2022/06/16 02:24:14;;;;;;;2.88;1.43;;;;;;;16.32;66.39;100900.58;466571;113;922544;-75
2022/06/16 02:25:17;;;;;;;2.53;1.27;;;;;;;16.34;66.56;100903.91;466498;113;923124;-75
2022/06/16 02:26:21;;;;;;;2.29;1.42;;;;;;;16.36;66.43;100901.75;466608;113;922559;-74
2022/06/16 02:27:24;;;;;;;2.83;1.41;;;;;;;16.36;66.36;100899.00;466719;113;922808;-75
2022/06/16 02:28:29;;;;;;;3.01;1.51;;;;;;;16.36;66.15;100907.26;466533;113;922934;-75
2022/06/16 02:29:37;;;;;;;1.31;1.21;;;;;;;16.36;66.17;100899.00;462216;113;923119;-75
2022/06/16 02:30:56;;;;;;;1.69;1.26;;;;;;;16.36;66.19;100904.50;458012;115;930722;-75
2022/06/16 02:32:19;;;;;;;1.42;1.32;;;;;;;16.37;66.30;100901.52;456510;115;922499;-76
2022/06/16 02:33:26;;;;;;;1.93;1.52;;;;;;;16.39;66.34;100907.59;456802;114;922584;-75
2022/06/16 02:34:46;;;;;;;1.65;1.39;;;;;;;16.51;66.27;100902.05;477134;110;946820;-76
2022/06/16 02:35:55;;;;;;;4.46;1.32;;;;;;;16.42;66.13;100907.13;445837;118;923132;-75
2022/06/16 02:37:16;;;;;;;1.50;1.21;;;;;;;16.43;66.06;100907.95;460974;113;922849;-75
2022/06/16 02:38:50;;;;;;;1.38;1.17;;;;;;;16.42;66.04;100907.13;462610;114;923103;-75
2022/06/16 02:39:57;;;;;;;1.48;1.38;;;;;;;16.43;66.11;100910.70;462181;114;922516;-75
2022/06/16 02:41:21;;;;;;;2.89;1.29;;;;;;;16.43;66.14;100908.77;463016;114;923527;-76
2022/06/16 02:42:48;;;;;;;2.93;1.45;;;;;;;16.43;66.15;100908.77;453819;117;923000;-75
2022/06/16 02:43:58;;;;;;;2.28;1.38;;;;;;;16.45;66.21;100908.53;462190;114;922902;-75
2022/06/16 02:45:26;;;;;;;1.77;1.36;;;;;;;16.46;66.26;100905.54;462510;114;922740;-75
2022/06/16 02:46:54;;;;;;;2.57;1.68;;;;;;;16.48;66.35;100908.89;463092;114;923064;-75
2022/06/16 02:48:41;;;;;;;2.28;1.48;;;;;;;16.61;66.42;100905.86;503230;105;946884;-75
2022/06/16 02:49:48;;;;;;;9.20;1.53;;;;;;;16.51;66.24;100904.80;488779;107;922884;-76
2022/06/16 02:51:00;;;;;;;1.30;1.04;;;;;;;16.50;66.19;100903.12;485101;108;922627;-75
2022/06/16 02:52:16;;;;;;;2.17;1.35;;;;;;;16.50;66.07;100905.88;487026;107;922517;-75
2022/06/16 02:53:45;;;;;;;1.53;1.32;;;;;;;16.49;66.03;100907.78;476767;110;922619;-75
2022/06/16 02:55:00;;;;;;;2.76;1.79;;;;;;;16.61;66.01;100907.77;482443;110;946875;-76
2022/06/16 02:56:25;;;;;;;1.37;1.26;;;;;;;16.49;65.97;100909.70;473814;112;923078;-75
2022/06/16 02:57:37;;;;;;;2.06;1.53;;;;;;;16.49;66.03;100898.69;452808;114;923117;-75
2022/06/16 02:58:43;;;;;;;1.46;1.14;;;;;;;16.48;66.03;100897.88;464095;114;922647;-75
2022/06/16 02:59:50;;;;;;;1.92;1.33;;;;;;;16.49;66.15;100899.53;465399;114;922574;-75
2022/06/16 03:00:56;;;;;;;3.12;1.29;;;;;;;16.52;66.31;100903.72;465436;114;922518;-75
2022/06/16 03:02:06;;;;;;;1.36;1.16;;;;;;;16.56;66.27;100904.89;465448;114;922840;-75
2022/06/16 03:03:25;;;;;;;4.30;1.38;;;;;;;16.57;66.29;100899.14;465415;114;923097;-74
2022/06/16 03:04:40;;;;;;;3.24;1.41;;;;;;;16.59;66.19;100905.25;464458;114;922491;-75
2022/06/16 03:05:44;;;;;;;2.67;1.32;;;;;;;16.59;66.03;100907.20;464836;114;923066;-75
2022/06/16 03:06:47;;;;;;;2.90;1.32;;;;;;;16.59;66.00;100901.69;465528;114;922529;-75
2022/06/16 03:07:51;;;;;;;1.40;1.28;;;;;;;16.59;66.01;100905.25;465645;114;922483;-75
2022/06/16 03:08:57;;;;;;;3.06;1.71;;;;;;;16.59;66.06;100905.25;465422;114;922478;-74
2022/06/16 03:10:04;;;;;;;2.00;1.37;;;;;;;16.61;66.18;100905.02;464924;114;922595;-75
2022/06/16 03:11:11;;;;;;;4.51;1.44;;;;;;;16.63;66.22;100902.86;455790;116;922967;-75
2022/06/16 03:12:15;;;;;;;2.39;1.37;;;;;;;16.65;66.09;100903.43;456524;114;922774;-74
2022/06/16 03:13:23;;;;;;;1.38;1.15;;;;;;;16.66;66.09;100903.19;465553;113;922578;-74
2022/06/16 03:14:26;;;;;;;2.61;1.34;;;;;;;16.68;66.19;100905.70;465382;114;922643;-76
2022/06/16 03:15:29;;;;;;;1.41;1.31;;;;;;;16.70;66.25;100906.31;456127;116;922740;-75
2022/06/16 03:16:33;;;;;;;1.92;1.24;;;;;;;16.72;66.13;100904.13;456270;114;922615;-75
2022/06/16 03:17:36;;;;;;;1.60;1.27;;;;;;;16.74;66.10;100912.14;465515;114;922577;-74
2022/06/16 03:18:39;;;;;;;1.99;1.41;;;;;;;16.75;66.06;100908.31;465563;114;930351;-75
2022/06/16 03:19:42;;;;;;;2.14;1.24;;;;;;;16.75;66.04;100913.82;465641;114;922408;-74
2022/06/16 03:20:45;;;;;;;2.69;1.36;;;;;;;16.76;66.04;100912.74;465656;114;922513;-74
2022/06/16 03:21:49;;;;;;;1.94;1.31;;;;;;;16.76;66.14;100908.05;465572;114;922780;-74
2022/06/16 03:22:52;;;;;;;1.92;1.26;;;;;;;16.78;66.07;100911.40;465575;113;922545;-75
2022/06/16 03:23:56;;;;;;;2.23;1.50;;;;;;;16.80;66.10;100917.50;465614;114;922569;-75
2022/06/16 03:24:59;;;;;;;1.89;1.60;;;;;;;16.82;66.14;100917.23;465526;113;922549;-75
2022/06/16 03:26:02;;;;;;;2.37;1.53;;;;;;;16.82;66.09;100909.81;465690;114;922613;-76
2022/06/16 03:27:07;;;;;;;1.77;1.31;;;;;;;16.83;66.20;100908.73;465608;114;922664;-74
2022/06/16 03:28:14;;;;;;;1.92;1.64;;;;;;;16.83;66.13;100908.73;465328;114;922954;-75
2022/06/16 03:29:17;;;;;;;2.41;1.44;;;;;;;16.85;66.22;100911.25;465423;113;922528;-75
2022/06/16 03:30:21;;;;;;;3.11;1.15;;;;;;;16.85;66.32;100914.00;465026;114;928604;-75
2022/06/16 03:31:24;;;;;;;1.84;1.54;;;;;;;16.87;66.46;100907.14;465566;114;923017;-75
2022/06/16 03:32:29;;;;;;;1.37;1.27;;;;;;;16.89;66.53;100920.67;463808;114;923108;-75
2022/06/16 03:33:32;;;;;;;2.17;1.51;;;;;;;16.93;66.59;100919.09;463962;114;922985;-76
2022/06/16 03:34:35;;;;;;;2.61;1.33;;;;;;;16.94;66.53;100918.84;456919;114;922583;-75
2022/06/16 03:35:39;;;;;;;2.71;1.41;;;;;;;16.96;66.50;100919.45;457384;116;922518;-76
2022/06/16 03:36:43;;;;;;;1.89;1.77;;;;;;;16.98;66.48;100916.45;457264;116;922458;-75
2022/06/16 03:37:47;;;;;;;1.67;1.51;;;;;;;17.01;66.36;100919.53;456295;116;922801;-75
2022/06/16 03:38:50;;;;;;;5.16;1.60;;;;;;;17.02;66.32;100923.12;457363;116;922994;-75
2022/06/16 03:39:53;;;;;;;2.11;1.34;;;;;;;17.03;66.32;100925.64;457367;116;922940;-75
2022/06/16 03:40:56;;;;;;;2.00;1.35;;;;;;;17.04;66.32;100919.02;457382;116;922525;-76
2022/06/16 03:42:00;;;;;;;2.42;1.37;;;;;;;17.06;66.29;100914.11;457362;116;922322;-75
2022/06/16 03:43:05;;;;;;;2.18;1.62;;;;;;;17.07;66.35;100917.70;457420;116;922857;-75
2022/06/16 03:44:08;;;;;;;1.90;1.34;;;;;;;17.11;66.46;100927.13;457210;116;922876;-75
2022/06/16 03:45:11;;;;;;;2.05;1.09;;;;;;;17.13;66.36;100919.47;457361;116;922881;-76
2022/06/16 03:46:16;;;;;;;2.21;1.51;;;;;;;17.15;66.25;100924.70;457301;116;922435;-76
2022/06/16 03:47:22;;;;;;;1.71;1.47;;;;;;;17.16;66.16;100913.44;456791;116;930290;-75
2022/06/16 03:48:25;;;;;;;4.33;1.59;;;;;;;17.19;66.11;100923.14;457212;116;922591;-75
2022/06/16 03:49:29;;;;;;;2.49;1.65;;;;;;;17.19;66.08;100920.38;457197;116;930434;-75
2022/06/16 03:50:33;;;;;;;1.77;1.46;;;;;;;17.20;66.10;100908.28;457284;114;922474;-75
2022/06/16 03:51:38;;;;;;;3.63;1.53;;;;;;;17.21;66.20;100916.27;457160;116;930379;-76
2022/06/16 03:52:41;;;;;;;2.77;1.48;;;;;;;17.23;66.27;100916.03;457464;114;922973;-75
2022/06/16 03:53:44;;;;;;;2.14;1.49;;;;;;;17.25;66.25;100911.12;450486;116;922778;-74
2022/06/16 03:54:47;;;;;;;1.44;1.32;;;;;;;17.26;66.26;100912.77;450539;116;922668;-74
2022/06/16 03:55:50;;;;;;;2.88;1.57;;;;;;;17.27;66.22;100917.20;450370;116;923140;-75
2022/06/16 03:56:55;;;;;;;2.39;1.72;;;;;;;17.28;66.19;100910.60;450282;116;923079;-74
2022/06/16 03:57:58;;;;;;;4.29;1.71;;;;;;;17.30;66.29;100919.47;457352;116;923189;-74
2022/06/16 03:59:02;;;;;;;4.11;1.60;;;;;;;17.33;66.40;100918.95;457255;116;922983;-75
2022/06/16 04:00:08;;;;;;;2.87;1.37;;;;;;;17.35;66.38;100919.55;450332;116;923090;-76
2022/06/16 04:01:21;;;;;;;2.45;1.42;;;;;;;17.37;66.44;100920.95;451571;116;930247;-75
2022/06/16 04:02:24;;;;;;;2.64;1.61;;;;;;;17.40;66.38;100920.47;462727;114;923333;-76
2022/06/16 04:04:50;;;;;;;2.07;1.37;;;;;;;17.45;66.47;100923.30;465418;114;922631;-76
2022/06/16 04:05:54;;;;;;;2.39;1.67;;;;;;;17.48;66.49;100924.70;458297;115;922894;-75
2022/06/16 04:06:58;;;;;;;2.85;1.51;;;;;;;17.50;66.61;100919.78;448331;116;923400;-75
2022/06/16 04:08:01;;;;;;;1.66;1.46;;;;;;;17.53;66.53;100918.45;456178;114;923127;-76
2022/06/16 04:09:05;;;;;;;2.11;1.72;;;;;;;17.55;66.52;100927.29;465438;113;930736;-75
2022/06/16 04:10:11;;;;;;;2.01;1.34;;;;;;;17.57;66.57;100927.88;465301;114;922468;-75
2022/06/16 04:11:27;;;;;;;2.08;1.67;;;;;;;17.59;66.54;100923.77;458093;115;922622;-75
2022/06/16 04:12:32;;;;;;;1.67;1.46;;;;;;;17.63;66.54;100924.98;459795;114;923095;-75
2022/06/16 04:13:36;;;;;;;2.64;1.58;;;;;;;17.65;66.46;100920.03;465417;113;922618;-75
2022/06/16 04:14:39;;;;;;;1.38;1.27;;;;;;;17.68;66.45;100926.98;465483;113;923014;-75
2022/06/16 04:15:43;;;;;;;2.60;1.26;;;;;;;17.68;66.49;100922.30;465440;113;922473;-76
2022/06/16 04:16:51;;;;;;;1.61;1.51;;;;;;;17.71;66.53;100934.73;465252;113;930272;-76
2022/06/16 04:17:56;;;;;;;2.37;1.61;;;;;;;17.72;66.67;100920.70;464415;113;930242;-76
2022/06/16 04:19:01;;;;;;;2.08;1.36;;;;;;;17.75;66.61;100928.45;464838;113;922903;-75
2022/06/16 04:20:14;;;;;;;2.19;1.37;;;;;;;17.77;66.64;100931.80;465513;113;923090;-75
2022/06/16 04:21:19;;;;;;;2.37;1.71;;;;;;;17.79;66.65;100926.04;459739;113;923209;-74
2022/06/16 04:22:36;;;;;;;2.17;1.50;;;;;;;17.80;66.64;100934.07;462878;114;922545;-75
2022/06/16 04:23:41;;;;;;;2.07;1.52;;;;;;;17.81;66.65;100921.92;465024;113;922404;-76
2022/06/16 04:24:44;;;;;;;2.38;1.43;;;;;;;17.84;66.67;100924.19;458060;115;930765;-75
2022/06/16 04:25:47;;;;;;;2.02;1.56;;;;;;;17.87;66.61;100922.83;458401;114;923066;-75
2022/06/16 04:26:57;;;;;;;2.33;1.99;;;;;;;17.87;66.62;100920.91;465101;113;922510;-74
2022/06/16 04:28:03;;;;;;;3.64;1.59;;;;;;;17.90;66.66;100925.09;465300;113;922501;-75
2022/06/16 04:29:09;;;;;;;3.74;1.56;;;;;;;17.92;66.69;100917.38;465105;113;930351;-76
2022/06/16 04:30:17;;;;;;;1.86;1.68;;;;;;;17.95;66.71;100927.08;464315;114;923043;-76
2022/06/16 04:31:20;;;;;;;1.90;1.59;;;;;;;17.97;66.66;100924.92;463719;114;923101;-75
2022/06/16 04:32:23;;;;;;;1.92;1.46;;;;;;;18.00;66.73;100925.23;463968;114;922645;-75
2022/06/16 04:33:27;;;;;;;1.70;1.59;;;;;;;18.02;66.64;100924.98;455666;115;922515;-75
2022/06/16 04:34:32;;;;;;;1.44;1.37;;;;;;;18.03;66.62;100923.90;448374;116;923002;-75
2022/06/16 04:35:35;;;;;;;3.71;1.71;;;;;;;18.06;66.65;100928.89;457381;116;922566;-75
2022/06/16 04:36:40;;;;;;;2.02;1.60;;;;;;;18.06;66.72;100926.13;457234;116;923181;-76
2022/06/16 04:37:51;;;;;;;2.12;1.37;;;;;;;18.07;66.59;100928.64;457315;116;922988;-76
2022/06/16 04:38:55;;;;;;;1.79;1.62;;;;;;;18.07;66.62;100927.81;457382;115;923064;-76
2022/06/16 04:39:58;;;;;;;2.18;1.45;;;;;;;18.08;66.68;100919.28;455589;116;922667;-73
2022/06/16 04:41:02;;;;;;;2.20;1.66;;;;;;;18.10;66.75;100916.24;455807;116;923148;-75
2022/06/16 04:42:06;;;;;;;2.31;1.32;;;;;;;18.12;66.80;100919.59;457377;115;922849;-75
2022/06/16 04:43:10;;;;;;;3.86;1.67;;;;;;;18.13;66.82;100922.11;457334;116;923245;-74
2022/06/16 04:44:15;;;;;;;2.05;1.74;;;;;;;18.14;66.85;100920.98;457145;116;930493;-75
2022/06/16 04:45:20;;;;;;;4.13;2.01;;;;;;;18.18;66.95;100921.33;457225;116;922557;-75
2022/06/16 04:46:26;;;;;;;1.89;1.59;;;;;;;18.21;67.02;100920.80;458624;114;922936;-76
2022/06/16 04:47:29;;;;;;;2.34;1.63;;;;;;;18.23;67.04;100919.47;465290;114;922549;-75
2022/06/16 04:48:32;;;;;;;3.49;1.87;;;;;;;18.26;67.09;100912.58;465425;114;922511;-75
2022/06/16 04:49:37;;;;;;;1.68;1.53;;;;;;;18.29;67.14;100920.37;465070;113;922833;-76
2022/06/16 04:50:42;;;;;;;2.04;1.81;;;;;;;18.31;67.24;100919.00;465296;114;922468;-75
2022/06/16 04:51:47;;;;;;;2.72;1.83;;;;;;;18.34;67.36;100918.50;465005;114;922996;-75
2022/06/16 04:52:52;;;;;;;4.23;2.11;;;;;;;18.39;67.33;100917.72;465174;114;922790;-75
2022/06/16 04:53:57;;;;;;;2.93;1.90;;;;;;;18.44;67.37;100919.70;464926;113;923152;-76
2022/06/16 04:55:02;;;;;;;1.86;1.54;;;;;;;18.46;67.31;100915.61;462066;114;922584;-77
2022/06/16 04:56:19;;;;;;;2.97;1.82;;;;;;;18.48;67.33;100921.68;455472;116;923340;-75
2022/06/16 04:57:34;;;;;;;2.59;1.62;;;;;;;18.51;67.34;100918.42;455036;116;922796;-76
2022/06/16 04:58:41;;;;;;;2.34;1.56;;;;;;;18.53;67.38;100918.14;463391;114;922489;-74
2022/06/16 04:59:55;;;;;;;2.73;1.76;;;;;;;18.53;67.40;100918.98;448692;114;923335;-76
2022/06/16 05:01:19;;;;;;;4.45;1.62;;;;;;;18.54;67.47;100920.68;465277;114;922996;-74
2022/06/16 05:02:25;;;;;;;2.36;1.55;;;;;;;18.57;67.63;100922.94;464369;114;922714;-76
2022/06/16 05:03:33;;;;;;;2.60;1.68;;;;;;;18.59;67.65;100922.66;452414;113;923223;-76
2022/06/16 05:04:42;;;;;;;1.94;1.52;;;;;;;18.61;67.70;100929.61;463559;114;923009;-75
2022/06/16 05:05:50;;;;;;;4.37;1.83;;;;;;;18.65;67.78;100916.10;464402;114;923157;-76
2022/06/16 05:06:58;;;;;;;2.26;1.72;;;;;;;18.69;67.79;100920.00;463571;114;922771;-76
2022/06/16 05:08:20;;;;;;;2.01;1.53;;;;;;;18.71;67.81;100915.06;465221;114;923035;-76
2022/06/16 05:09:41;;;;;;;1.79;1.53;;;;;;;18.75;67.86;100917.05;465273;114;922836;-75
2022/06/16 05:11:02;;;;;;;1.85;1.55;;;;;;;18.80;67.91;100915.45;465270;114;923018;-75
2022/06/16 05:12:12;;;;;;;2.38;1.56;;;;;;;18.84;67.98;100916.59;464857;114;922545;-77
2022/06/16 05:13:19;;;;;;;2.19;1.72;;;;;;;18.88;67.92;100909.44;462002;114;930296;-75
2022/06/16 05:14:40;;;;;;;4.28;1.79;;;;;;;18.91;67.93;100911.69;465178;114;922868;-74
2022/06/16 05:15:48;;;;;;;4.52;1.86;;;;;;;18.94;67.93;100914.75;464448;114;922682;-77
2022/06/16 05:17:08;;;;;;;2.44;1.79;;;;;;;18.98;67.92;100915.89;464139;114;922965;-74
2022/06/16 05:18:30;;;;;;;3.13;1.81;;;;;;;19.03;67.92;100909.56;461451;114;922522;-74